createdAt,value
2022-10-01T00:01:16.003Z,4.80
2022-10-01T00:03:42.842Z,5.03
2022-10-01T00:06:20.635Z,5.10
2022-10-01T00:08:49.393Z,4.43
2022-10-01T00:11:20.781Z,5.68
2022-10-01T00:13:48.096Z,5.18
2022-10-01T00:16:17.455Z,4.93
2022-10-01T00:18:45.785Z,4.75
2022-10-01T00:21:14.884Z,4.60
2022-10-01T00:23:42.347Z,5.25
2022-10-01T00:26:15.349Z,4.72
2022-10-01T00:28:42.843Z,5.13
2022-10-01T00:31:10.367Z,5.10
2022-10-01T00:33:38.369Z,4.25
2022-10-01T00:36:06.771Z,4.68
2022-10-01T00:38:33.800Z,5.28
2022-10-01T00:41:01.204Z,5.68
2022-10-01T00:43:31.676Z,5.47
2022-10-01T00:46:03.557Z,5.38
2022-10-01T00:48:36.257Z,4.40
2022-10-01T00:51:02.829Z,5.00
2022-10-01T00:53:29.582Z,4.47
2022-10-01T00:55:57.917Z,4.25
2022-10-01T00:58:25.173Z,4.60
2022-10-01T01:00:54.912Z,4.10
2022-10-01T01:03:21.519Z,4.38
2022-10-01T01:05:50.062Z,3.78
2022-10-01T01:08:17.434Z,4.00
2022-10-01T01:11:08.747Z,4.13
2022-10-01T01:13:50.158Z,4.03
2022-10-01T01:16:31.415Z,3.90
2022-10-01T01:19:20.621Z,3.80
2022-10-01T01:21:53.954Z,4.18
2022-10-01T01:24:38.633Z,3.65
2022-10-01T01:27:24.205Z,3.80
2022-10-01T01:29:53.098Z,4.32
2022-10-01T01:32:25.806Z,3.92
2022-10-01T01:34:55.863Z,3.95
2022-10-01T01:37:27.776Z,4.28
2022-10-01T01:39:56.564Z,4.43
2022-10-01T01:42:37.108Z,4.28
2022-10-01T01:45:09.683Z,4.47
2022-10-01T01:47:38.716Z,3.90
2022-10-01T01:50:08.069Z,3.58
2022-10-01T01:52:35.266Z,3.55
2022-10-01T01:55:08.304Z,3.80
2022-10-01T02:00:06.769Z,3.95
2022-10-01T02:02:36.209Z,5.32
2022-10-01T02:05:07.199Z,4.63
2022-10-01T02:07:58.222Z,4.45
2022-10-01T02:10:48.910Z,5.40
2022-10-01T02:13:25.140Z,4.65
2022-10-01T02:15:56.733Z,4.93
2022-10-01T02:18:37.490Z,5.10
2022-10-01T02:21:15.949Z,5.68
2022-10-01T02:24:34.689Z,6.10
2022-10-01T02:27:06.088Z,6.35
2022-10-01T02:29:34.541Z,5.88
2022-10-01T02:32:02.112Z,7.03
2022-10-01T02:34:30.178Z,6.45
2022-10-01T02:36:59.983Z,6.32
2022-10-01T02:39:29.365Z,8.02
2022-10-01T02:41:58.944Z,6.63
2022-10-01T02:44:37.857Z,5.85
2022-10-01T02:47:18.531Z,6.65
2022-10-01T02:49:44.933Z,7.75
2022-10-01T02:52:42.345Z,8.63
2022-10-01T02:55:19.264Z,7.50
2022-10-01T02:57:46.020Z,6.53
2022-10-01T03:00:15.302Z,6.53
2022-10-01T03:02:41.919Z,6.00
2022-10-01T03:05:08.785Z,6.72
2022-10-01T03:07:36.087Z,6.60
2022-10-01T03:10:06.113Z,5.82
2022-10-01T03:12:33.009Z,6.40
2022-10-01T03:14:59.342Z,6.53
2022-10-01T03:17:26.080Z,6.80
2022-10-01T03:19:52.735Z,6.82
2022-10-01T03:22:24.088Z,7.45
2022-10-01T03:24:52.104Z,7.63
2022-10-01T03:27:19.644Z,6.93
2022-10-01T03:29:46.458Z,6.80
2022-10-01T03:32:13.284Z,7.60
2022-10-01T03:34:40.209Z,6.93
2022-10-01T03:37:07.389Z,6.78
2022-10-01T03:39:34.234Z,7.25
2022-10-01T03:42:00.701Z,6.93
2022-10-01T03:44:28.297Z,6.97
2022-10-01T03:46:55.021Z,6.80
2022-10-01T03:49:21.458Z,8.18
2022-10-01T03:51:47.855Z,6.93
2022-10-01T03:54:14.480Z,7.97
2022-10-01T03:56:42.458Z,7.57
2022-10-01T03:59:10.885Z,7.65
2022-10-01T04:01:38.881Z,8.75
2022-10-01T04:04:06.241Z,8.18
2022-10-01T04:06:33.279Z,8.88
2022-10-01T04:08:59.717Z,7.32
2022-10-01T04:11:26.121Z,8.05
2022-10-01T04:13:52.600Z,8.63
2022-10-01T04:16:19.124Z,8.13
2022-10-01T04:18:45.596Z,7.63
2022-10-01T04:21:12.763Z,6.70
2022-10-01T04:23:39.129Z,8.25
2022-10-01T04:26:05.611Z,8.27
2022-10-01T04:28:32.296Z,8.18
2022-10-01T04:31:17.917Z,8.40
2022-10-01T04:33:44.822Z,7.93
2022-10-01T04:36:11.721Z,8.38
2022-10-01T04:38:38.100Z,8.40
2022-10-01T04:41:04.517Z,7.20
2022-10-01T04:43:31.020Z,7.63
2022-10-01T04:45:57.431Z,7.40
2022-10-01T04:48:24.152Z,6.88
2022-10-01T04:50:50.583Z,7.60
2022-10-01T04:53:17.012Z,7.30
2022-10-01T04:55:43.652Z,7.50
2022-10-01T04:58:10.116Z,7.05
2022-10-01T05:00:36.789Z,7.50
2022-10-01T05:03:03.311Z,6.75
2022-10-01T05:05:32.806Z,7.57
2022-10-01T05:07:59.197Z,7.10
2022-10-01T05:10:26.057Z,6.18
2022-10-01T05:12:52.473Z,6.55
2022-10-01T05:15:19.351Z,6.88
2022-10-01T05:17:46.967Z,6.88
2022-10-01T05:20:19.421Z,6.95
2022-10-01T05:22:47.235Z,6.53
2022-10-01T05:25:13.772Z,6.63
2022-10-01T05:27:40.601Z,5.85
2022-10-01T05:30:09.320Z,6.15
2022-10-01T05:32:36.065Z,6.53
2022-10-01T05:35:03.544Z,5.80
2022-10-01T05:37:29.926Z,6.00
2022-10-01T05:39:56.272Z,5.82
2022-10-01T05:42:22.634Z,6.53
2022-10-01T05:44:49.950Z,5.28
2022-10-01T05:47:17.650Z,5.70
2022-10-01T05:49:44.301Z,5.97
2022-10-01T05:52:12.164Z,5.55
2022-10-01T05:54:38.572Z,6.20
2022-10-01T05:57:06.056Z,5.47
2022-10-01T05:59:32.456Z,5.35
2022-10-01T06:01:59.079Z,5.60
2022-10-01T06:04:25.871Z,4.93
2022-10-01T06:06:53.686Z,5.03
2022-10-01T06:09:20.044Z,5.22
2022-10-01T06:11:48.818Z,5.22
2022-10-01T06:14:16.102Z,5.30
2022-10-01T06:16:42.612Z,4.85
2022-10-01T06:19:09.035Z,5.32
2022-10-01T06:21:36.143Z,5.57
2022-10-01T06:24:03.113Z,5.05
2022-10-01T06:26:29.805Z,5.65
2022-10-01T06:28:56.619Z,5.40
2022-10-01T06:31:23.185Z,5.43
2022-10-01T06:33:49.635Z,5.70
2022-10-01T06:36:16.029Z,4.85
2022-10-01T06:38:42.938Z,5.30
2022-10-01T06:41:09.518Z,5.30
2022-10-01T06:43:36.164Z,5.50
2022-10-01T06:46:04.493Z,5.75
2022-10-01T06:48:32.302Z,5.10
2022-10-01T06:50:59.246Z,5.18
2022-10-01T06:53:27.432Z,5.30
2022-10-01T06:55:54.513Z,4.78
2022-10-01T06:58:22.881Z,4.88
2022-10-01T07:00:50.169Z,4.80
2022-10-01T07:03:19.685Z,5.47
2022-10-01T07:05:47.142Z,5.13
2022-10-01T07:08:13.587Z,5.32
2022-10-01T07:10:41.383Z,5.38
2022-10-01T07:13:12.653Z,4.82
2022-10-01T07:15:39.366Z,4.95
2022-10-01T07:18:08.497Z,4.97
2022-10-01T07:20:39.380Z,5.32
2022-10-01T07:23:11.834Z,5.43
2022-10-01T07:25:40.005Z,5.72
2022-10-01T07:28:16.052Z,5.68
2022-10-01T07:30:47.682Z,4.95
2022-10-01T07:33:23.134Z,4.78
2022-10-01T07:35:49.625Z,4.60
2022-10-01T07:38:16.503Z,5.43
2022-10-01T07:40:43.092Z,5.20
2022-10-01T07:43:09.890Z,5.15
2022-10-01T07:45:36.287Z,5.03
2022-10-01T07:48:03.310Z,4.50
2022-10-01T07:50:30.435Z,4.72
2022-10-01T07:52:58.639Z,4.60
2022-10-01T07:55:26.883Z,3.95
2022-10-01T07:57:55.154Z,4.88
2022-10-01T08:00:23.837Z,5.32
2022-10-01T08:02:53.609Z,5.00
2022-10-01T08:05:21.901Z,4.57
2022-10-01T08:07:50.261Z,5.03
2022-10-01T08:10:18.806Z,4.47
2022-10-01T08:12:45.614Z,4.00
2022-10-01T08:15:14.570Z,4.05
2022-10-01T08:17:41.598Z,5.07
2022-10-01T08:20:10.767Z,4.57
2022-10-01T08:22:41.864Z,4.75
2022-10-01T08:25:09.500Z,4.32
2022-10-01T08:27:36.318Z,4.45
2022-10-01T08:30:03.820Z,4.20
2022-10-01T08:32:31.248Z,4.93
2022-10-01T08:35:00.068Z,3.92
2022-10-01T08:37:30.286Z,4.65
2022-10-01T08:39:57.292Z,4.07
2022-10-01T08:42:52.401Z,5.05
2022-10-01T08:45:37.745Z,4.18
2022-10-01T08:48:42.354Z,3.60
2022-10-01T08:51:46.320Z,3.60
2022-10-01T08:54:34.764Z,4.20
2022-10-01T08:57:04.766Z,4.00
2022-10-01T08:59:43.416Z,3.70
2022-10-01T09:02:32.568Z,3.90
2022-10-01T09:05:13.415Z,4.03
2022-10-01T09:07:49.428Z,3.47
2022-10-01T09:10:24.646Z,4.22
2022-10-01T09:13:11.831Z,3.33
2022-10-01T09:15:38.168Z,3.90
2022-10-01T09:18:33.045Z,3.50
2022-10-01T09:20:59.396Z,3.40
2022-10-01T09:23:41.966Z,2.90
2022-10-01T09:26:11.886Z,3.53
2022-10-01T09:28:40.721Z,2.88
2022-10-01T09:31:21.345Z,2.97
2022-10-01T09:34:13.344Z,2.60
2022-10-01T09:36:42.899Z,3.10
2022-10-01T09:39:24.697Z,2.70
2022-10-01T09:41:51.987Z,3.67
2022-10-01T09:44:30.154Z,3.45
2022-10-01T09:46:57.205Z,2.75
2022-10-01T09:49:33.782Z,3.15
2022-10-01T09:52:06.176Z,3.33
2022-10-01T09:54:43.098Z,2.88
2022-10-01T09:57:13.876Z,2.88
2022-10-01T09:59:47.165Z,3.05
2022-10-01T10:02:27.618Z,2.67
2022-10-01T10:05:05.203Z,3.20
2022-10-01T10:07:32.544Z,2.90
2022-10-01T10:10:10.526Z,2.67
2022-10-01T10:12:36.949Z,2.40
2022-10-01T10:15:16.697Z,2.40
2022-10-01T10:17:46.236Z,2.70
2022-10-01T10:20:24.465Z,2.35
2022-10-01T10:22:51.632Z,2.88
2022-10-01T10:25:23.967Z,2.90
2022-10-01T10:27:55.218Z,2.38
2022-10-01T10:30:26.323Z,2.50
2022-10-01T10:33:02.135Z,2.90
2022-10-01T10:35:29.072Z,3.30
2022-10-01T10:37:57.250Z,3.05
2022-10-01T10:40:29.570Z,2.72
2022-10-01T10:42:58.523Z,2.88
2022-10-01T10:45:36.456Z,3.25
2022-10-01T10:48:06.642Z,2.78
2022-10-01T10:50:39.058Z,3.17
2022-10-01T10:53:24.086Z,3.10
2022-10-01T10:56:01.935Z,2.92
2022-10-01T10:58:31.026Z,2.88
2022-10-01T11:01:01.503Z,2.65
2022-10-01T11:03:30.687Z,2.45
2022-10-01T11:06:18.549Z,2.83
2022-10-01T11:08:56.987Z,2.60
2022-10-01T11:11:42.162Z,2.40
2022-10-01T11:14:18.077Z,2.15
2022-10-01T11:17:04.858Z,2.20
2022-10-01T11:22:22.435Z,2.20
2022-10-01T11:24:51.953Z,2.70
2022-10-01T11:27:48.627Z,2.38
2022-10-01T11:30:15.179Z,2.35
2022-10-01T11:33:30.610Z,2.78
2022-10-01T11:36:14.894Z,2.80
2022-10-01T11:38:54.167Z,3.05
2022-10-01T11:41:23.846Z,2.03
2022-10-01T11:43:56.033Z,2.28
2022-10-01T11:46:48.698Z,1.70
2022-10-01T11:49:42.494Z,2.15
2022-10-01T11:52:21.938Z,2.70
2022-10-01T11:55:34.467Z,2.00
2022-10-01T11:58:26.397Z,2.20
2022-10-01T12:01:05.591Z,1.50
2022-10-01T12:03:45.845Z,1.30
2022-10-01T12:06:14.624Z,1.42
2022-10-01T12:08:48.119Z,1.45
2022-10-01T12:11:30.605Z,1.40
2022-10-01T12:14:13.302Z,1.08
2022-10-01T12:16:48.060Z,1.27
2022-10-01T12:19:36.604Z,1.33
2022-10-01T12:22:24.647Z,1.17
2022-10-01T12:24:53.648Z,1.05
2022-10-01T12:27:35.468Z,1.33
2022-10-01T12:30:13.334Z,1.60
2022-10-01T12:33:00.848Z,1.83
2022-10-01T12:35:47.732Z,1.70
2022-10-01T12:38:36.687Z,1.73
2022-10-01T12:41:41.943Z,1.88
2022-10-01T12:44:29.593Z,1.77
2022-10-01T12:47:11.841Z,1.60
2022-10-01T12:50:01.690Z,1.75
2022-10-01T12:52:41.064Z,2.00
2022-10-01T12:55:19.639Z,2.35
2022-10-01T12:57:57.044Z,2.17
2022-10-01T13:00:26.142Z,2.00
2022-10-01T13:03:37.323Z,1.60
2022-10-01T13:06:18.995Z,1.85
2022-10-01T13:09:02.727Z,1.73
2022-10-01T13:11:37.685Z,1.90
2022-10-01T13:14:07.109Z,1.52
2022-10-01T13:16:48.480Z,1.30
2022-10-01T13:19:24.773Z,1.38
2022-10-01T13:22:08.757Z,1.42
2022-10-01T13:24:50.220Z,1.38
2022-10-01T13:27:33.597Z,1.20
2022-10-01T13:32:35.627Z,1.25
2022-10-01T13:35:34.386Z,1.17
2022-10-01T13:38:14.530Z,1.70
2022-10-01T13:40:41.391Z,1.00
2022-10-01T13:43:24.466Z,1.00
2022-10-01T13:45:54.206Z,0.90
2022-10-01T13:48:32.269Z,1.52
2022-10-01T13:51:10.560Z,0.98
2022-10-01T13:53:51.860Z,1.10
2022-10-01T13:56:35.180Z,0.90
2022-10-01T13:59:02.739Z,1.10
2022-10-01T14:01:42.366Z,0.90
2022-10-01T14:04:24.020Z,1.10
2022-10-01T14:06:53.507Z,1.80
2022-10-01T14:09:32.249Z,2.03
2022-10-01T14:12:32.611Z,0.90
2022-10-01T14:15:20.513Z,0.85
2022-10-01T14:17:52.768Z,0.77
2022-10-01T14:20:23.379Z,0.80
2022-10-01T14:23:13.541Z,1.00
2022-10-01T14:25:49.260Z,0.85
2022-10-01T14:28:37.789Z,0.52
2022-10-01T14:31:17.837Z,0.70
2022-10-01T14:34:35.577Z,0.80
2022-10-01T14:37:05.619Z,0.70
2022-10-01T14:39:39.777Z,0.57
2022-10-01T14:42:17.064Z,0.63
2022-10-01T14:44:46.601Z,0.68
2022-10-01T14:47:14.922Z,0.70
2022-10-01T14:49:41.368Z,0.70
2022-10-01T14:52:20.201Z,0.60
2022-10-01T14:55:02.682Z,0.70
2022-10-01T14:57:38.924Z,1.08
2022-10-01T15:00:10.886Z,0.70
2022-10-01T15:02:49.258Z,0.60
2022-10-01T15:05:28.900Z,0.68
2022-10-01T15:07:55.646Z,1.73
2022-10-01T15:10:26.365Z,0.80
2022-10-01T15:12:54.826Z,0.80
2022-10-01T15:15:28.648Z,0.77
2022-10-01T15:17:55.557Z,0.80
2022-10-01T15:20:22.041Z,1.13
2022-10-01T15:22:50.412Z,0.98
2022-10-01T15:25:22.142Z,1.00
2022-10-01T15:27:49.126Z,1.00
2022-10-01T15:30:18.182Z,0.88
2022-10-01T15:32:47.145Z,0.95
2022-10-01T15:35:17.430Z,1.35
2022-10-01T15:37:50.081Z,1.00
2022-10-01T15:43:08.399Z,1.35
2022-10-01T15:45:35.698Z,1.35
2022-10-01T15:48:02.061Z,1.40
2022-10-01T15:50:36.443Z,0.90
2022-10-01T15:53:09.913Z,1.15
2022-10-01T15:55:57.871Z,1.30
2022-10-01T15:58:30.434Z,1.40
2022-10-01T16:01:21.420Z,1.85
2022-10-01T16:03:53.737Z,2.13
2022-10-01T16:06:25.384Z,1.58
2022-10-01T16:09:04.940Z,1.20
2022-10-01T16:11:32.440Z,1.10
2022-10-01T16:14:33.138Z,2.03
2022-10-01T16:17:20.017Z,1.67
2022-10-01T16:19:49.202Z,2.15
2022-10-01T16:22:20.842Z,1.65
2022-10-01T16:24:48.469Z,1.65
2022-10-01T16:27:18.655Z,1.67
2022-10-01T16:30:21.798Z,1.17
2022-10-01T16:32:49.099Z,1.17
2022-10-01T16:35:21.581Z,1.73
2022-10-01T16:37:50.098Z,1.52
2022-10-01T16:40:31.013Z,2.55
2022-10-01T16:42:59.249Z,1.70
2022-10-01T16:45:29.397Z,1.80
2022-10-01T16:47:56.676Z,1.88
2022-10-01T16:50:23.794Z,2.08
2022-10-01T16:52:56.748Z,1.60
2022-10-01T16:55:24.643Z,1.27
2022-10-01T16:57:54.334Z,1.55
2022-10-01T17:00:22.910Z,1.83
2022-10-01T17:02:49.702Z,1.50
2022-10-01T17:05:25.448Z,1.88
2022-10-01T17:07:53.602Z,1.55
2022-10-01T17:10:22.381Z,1.85
2022-10-01T17:12:49.053Z,1.33
2022-10-01T17:15:20.025Z,1.60
2022-10-01T17:17:46.677Z,1.42
2022-10-01T17:20:13.688Z,1.40
2022-10-01T17:22:40.977Z,2.38
2022-10-01T17:25:07.697Z,1.67
2022-10-01T17:27:34.033Z,2.03
2022-10-01T17:30:00.469Z,2.13
2022-10-01T17:32:26.989Z,1.50
2022-10-01T17:34:54.334Z,2.22
2022-10-01T17:37:23.733Z,1.63
2022-10-01T17:39:50.674Z,1.95
2022-10-01T17:42:17.971Z,2.45
2022-10-01T17:44:45.117Z,2.63
2022-10-01T17:47:11.534Z,2.45
2022-10-01T17:49:38.400Z,2.53
2022-10-01T17:52:05.648Z,2.22
2022-10-01T17:54:32.639Z,2.05
2022-10-01T17:56:59.040Z,2.13
2022-10-01T17:59:25.536Z,2.33
2022-10-01T18:01:52.909Z,3.05
2022-10-01T18:04:19.349Z,3.25
2022-10-01T18:06:48.621Z,3.38
2022-10-01T18:09:15.664Z,3.83
2022-10-01T18:11:42.065Z,4.10
2022-10-01T18:14:08.442Z,3.17
2022-10-01T18:16:35.455Z,3.13
2022-10-01T18:21:49.426Z,2.65
2022-10-01T18:24:16.436Z,2.72
2022-10-01T18:26:43.115Z,3.65
2022-10-01T18:29:16.692Z,2.63
2022-10-01T18:31:45.056Z,3.33
2022-10-01T18:34:21.611Z,1.77
2022-10-01T18:36:57.452Z,3.72
2022-10-01T18:39:33.027Z,2.92
2022-10-01T18:42:02.359Z,2.05
2022-10-01T18:44:28.828Z,2.35
2022-10-01T18:47:13.107Z,3.08
2022-10-01T18:50:14.197Z,3.25
2022-10-01T18:52:55.778Z,5.10
2022-10-01T18:55:40.482Z,3.08
2022-10-01T18:58:33.174Z,4.28
2022-10-01T19:01:36.798Z,2.45
2022-10-01T19:04:21.055Z,2.63
2022-10-01T19:07:22.587Z,2.78
2022-10-01T19:10:13.232Z,2.80
2022-10-01T19:12:39.621Z,3.25
2022-10-01T19:15:26.831Z,2.22
2022-10-01T19:18:24.088Z,4.20
2022-10-01T19:21:12.710Z,3.20
2022-10-01T19:23:53.617Z,2.45
2022-10-01T19:26:34.982Z,2.47
2022-10-01T19:29:17.823Z,1.95
2022-10-01T19:32:08.476Z,2.03
2022-10-01T19:34:41.428Z,2.30
2022-10-01T19:37:18.115Z,2.60
2022-10-01T19:39:46.022Z,1.92
2022-10-01T19:42:23.366Z,1.52
2022-10-01T19:44:58.251Z,1.88
2022-10-01T19:47:51.992Z,1.42
2022-10-01T19:50:24.876Z,1.50
2022-10-01T19:52:55.199Z,1.42
2022-10-01T19:55:23.335Z,2.22
2022-10-01T19:57:49.786Z,1.98
2022-10-01T20:00:22.119Z,2.50
2022-10-01T20:03:04.116Z,2.60
2022-10-01T20:05:46.061Z,2.20
2022-10-01T20:08:27.600Z,2.25
2022-10-01T20:11:00.212Z,2.28
2022-10-01T20:13:29.502Z,2.00
2022-10-01T20:16:00.194Z,2.30
2022-10-01T20:18:41.930Z,2.08
2022-10-01T20:21:36.412Z,2.42
2022-10-01T20:24:32.986Z,1.55
2022-10-01T20:27:13.052Z,2.97
2022-10-01T20:29:58.213Z,3.30
2022-10-01T20:32:39.775Z,2.85
2022-10-01T20:35:21.704Z,2.80
2022-10-01T20:38:06.882Z,1.92
2022-10-01T20:40:55.559Z,2.38
2022-10-01T20:43:36.064Z,2.67
2022-10-01T20:46:14.724Z,3.35
2022-10-01T20:48:49.391Z,3.17
2022-10-01T20:51:45.951Z,3.83
2022-10-01T20:54:22.395Z,3.20
2022-10-01T20:57:03.569Z,3.10
2022-10-01T20:59:42.972Z,2.45
2022-10-01T21:02:32.428Z,2.22
2022-10-01T21:05:29.635Z,2.47
2022-10-01T21:08:04.220Z,2.50
2022-10-01T21:10:42.403Z,3.42
2022-10-01T21:13:19.701Z,2.45
2022-10-01T21:15:48.747Z,2.88
2022-10-01T21:18:34.048Z,2.25
2022-10-01T21:21:33.836Z,2.05
2022-10-01T21:24:16.493Z,1.38
2022-10-01T21:26:53.714Z,2.72
2022-10-01T21:29:52.435Z,1.27
2022-10-01T21:32:45.122Z,1.23
2022-10-01T21:35:33.631Z,1.50
2022-10-01T21:38:10.749Z,2.28
2022-10-01T21:40:47.682Z,1.98
2022-10-01T21:43:40.615Z,1.83
2022-10-01T21:46:22.750Z,1.83
2022-10-01T21:49:05.624Z,1.75
2022-10-01T21:52:13.149Z,1.75
2022-10-01T21:54:57.348Z,1.27
2022-10-01T21:58:05.788Z,2.03
2022-10-01T22:00:32.253Z,1.80
2022-10-01T22:03:22.383Z,1.70
2022-10-01T22:06:16.176Z,1.35
2022-10-01T22:09:15.428Z,1.73
2022-10-01T22:11:48.156Z,2.65
2022-10-01T22:14:18.455Z,1.48
2022-10-01T22:16:57.251Z,2.10
2022-10-01T22:19:31.244Z,1.67
2022-10-01T22:22:16.737Z,1.52
2022-10-01T22:24:53.420Z,1.58
2022-10-01T22:27:25.380Z,1.75
2022-10-01T22:30:12.801Z,1.70
2022-10-01T22:32:54.493Z,2.05
2022-10-01T22:35:29.883Z,2.03
2022-10-01T22:38:02.775Z,1.63
2022-10-01T22:40:35.999Z,2.05
2022-10-01T22:45:48.588Z,1.88
2022-10-01T22:48:24.417Z,1.98
2022-10-01T22:51:11.636Z,2.15
2022-10-01T22:53:59.838Z,1.95
2022-10-01T22:56:55.530Z,1.63
2022-10-01T22:59:46.691Z,2.40
2022-10-01T23:02:44.147Z,2.40
2022-10-01T23:05:22.615Z,2.67
2022-10-01T23:07:51.724Z,2.47
2022-10-01T23:10:22.176Z,2.63
2022-10-01T23:13:26.410Z,2.75
2022-10-01T23:16:14.281Z,2.50
2022-10-01T23:19:00.400Z,1.90
2022-10-01T23:21:41.302Z,2.00
2022-10-01T23:24:11.721Z,2.40
2022-10-01T23:27:08.893Z,3.30
2022-10-01T23:30:02.469Z,2.83
2022-10-01T23:35:42.646Z,2.13
2022-10-01T23:38:57.170Z,2.40
2022-10-01T23:41:49.166Z,2.40
2022-10-01T23:44:39.861Z,1.70
2022-10-01T23:47:12.403Z,2.42
2022-10-01T23:49:43.949Z,2.28
2022-10-01T23:52:21.181Z,2.38
2022-10-01T23:54:56.432Z,2.33
2022-10-01T23:57:31.998Z,2.70
